createdAt,value
2018-09-02T00:00:25.836Z,5.10
2018-09-02T00:01:25.862Z,5.30
2018-09-02T00:02:25.875Z,5.10
2018-09-02T00:03:25.898Z,7.20
2018-09-02T00:04:25.927Z,6.60
2018-09-02T00:05:25.938Z,5.20
2018-09-02T00:06:25.963Z,5.60
2018-09-02T00:07:25.974Z,6.00
2018-09-02T00:08:26.003Z,5.60
2018-09-02T00:09:26.016Z,6.00
2018-09-02T00:10:26.045Z,8.30
2018-09-02T00:11:26.065Z,5.60
2018-09-02T00:12:26.081Z,8.30
2018-09-02T00:13:26.096Z,5.90
2018-09-02T00:14:26.124Z,6.40
2018-09-02T00:15:26.150Z,4.80
2018-09-02T00:16:26.163Z,5.60
2018-09-02T00:17:26.188Z,6.80
2018-09-02T00:18:26.210Z,5.20
2018-09-02T00:19:26.238Z,4.40
2018-09-02T00:20:26.280Z,4.60
2018-09-02T00:21:26.269Z,5.80
2018-09-02T00:22:26.295Z,5.60
2018-09-02T00:23:26.306Z,5.70
2018-09-02T00:24:26.330Z,6.30
2018-09-02T00:25:26.343Z,4.80
2018-09-02T00:26:26.372Z,4.50
2018-09-02T00:27:26.385Z,4.90
2018-09-02T00:28:26.408Z,5.50
2018-09-02T00:29:26.423Z,5.20
2018-09-02T00:30:26.514Z,6.50
2018-09-02T00:31:26.479Z,5.20
2018-09-02T00:32:26.503Z,5.10
2018-09-02T00:33:26.516Z,6.90
2018-09-02T00:34:26.526Z,5.20
2018-09-02T00:35:26.552Z,5.10
2018-09-02T00:36:26.571Z,4.70
2018-09-02T00:37:26.599Z,4.60
2018-09-02T00:38:26.618Z,4.90
2018-09-02T00:39:26.636Z,4.70
2018-09-02T00:40:26.657Z,3.90
2018-09-02T00:41:26.670Z,6.20
2018-09-02T00:42:26.700Z,8.60
2018-09-02T00:43:26.714Z,5.30
2018-09-02T00:44:26.735Z,4.10
2018-09-02T00:45:26.749Z,5.20
2018-09-02T00:46:26.791Z,4.60
2018-09-02T00:47:26.804Z,4.40
2018-09-02T00:48:26.821Z,3.50
2018-09-02T00:49:26.848Z,4.90
2018-09-02T00:50:26.861Z,6.30
2018-09-02T00:51:26.880Z,4.30
2018-09-02T00:52:26.897Z,4.70
2018-09-02T00:53:26.924Z,4.70
2018-09-02T00:54:26.945Z,4.70
2018-09-02T00:55:26.958Z,4.60
2018-09-02T00:56:26.986Z,5.10
2018-09-02T00:57:27.000Z,5.20
2018-09-02T00:58:27.030Z,4.70
2018-09-02T00:59:27.043Z,4.00
2018-09-02T01:00:27.077Z,4.30
2018-09-02T01:01:27.091Z,6.70
2018-09-02T01:02:27.114Z,4.60
2018-09-02T01:03:27.138Z,4.40
2018-09-02T01:04:27.145Z,4.40
2018-09-02T01:05:27.172Z,4.60
2018-09-02T01:06:27.182Z,4.50
2018-09-02T01:07:27.207Z,4.70
2018-09-02T01:08:27.240Z,4.20
2018-09-02T01:09:27.252Z,4.20
2018-09-02T01:10:27.274Z,5.50
2018-09-02T01:11:27.288Z,5.10
2018-09-02T01:12:27.312Z,4.00
2018-09-02T01:13:27.331Z,4.40
2018-09-02T01:14:27.356Z,5.00
2018-09-02T01:15:27.384Z,4.40
2018-09-02T01:16:27.390Z,4.60
2018-09-02T01:17:27.417Z,5.30
2018-09-02T01:18:27.435Z,4.10
2018-09-02T01:19:27.460Z,6.10
2018-09-02T01:20:27.488Z,3.70
2018-09-02T01:21:27.502Z,5.20
2018-09-02T01:22:27.524Z,4.10
2018-09-02T01:23:27.536Z,4.60
2018-09-02T01:24:27.564Z,5.60
2018-09-02T01:25:27.579Z,5.70
2018-09-02T01:26:27.600Z,3.50
2018-09-02T01:27:27.614Z,3.50
2018-09-02T01:28:27.641Z,3.80
2018-09-02T01:29:27.668Z,4.40
2018-09-02T01:30:27.686Z,3.50
2018-09-02T01:31:27.711Z,4.50
2018-09-02T01:32:27.724Z,4.50
2018-09-02T01:33:27.750Z,3.60
2018-09-02T01:34:27.760Z,4.70
2018-09-02T01:35:27.786Z,4.60
2018-09-02T01:36:27.810Z,4.70
2018-09-02T01:37:27.823Z,5.10
2018-09-02T01:38:27.856Z,3.60
2018-09-02T01:39:27.867Z,5.10
2018-09-02T01:40:27.891Z,4.50
2018-09-02T01:41:27.904Z,5.70
2018-09-02T01:42:27.933Z,5.20
2018-09-02T01:43:27.949Z,5.00
2018-09-02T01:44:27.971Z,5.10
2018-09-02T01:45:27.999Z,5.50
2018-09-02T01:46:28.007Z,4.30
2018-09-02T01:47:28.032Z,4.80
2018-09-02T01:48:28.051Z,5.50
2018-09-02T01:49:28.077Z,3.80
2018-09-02T01:50:28.102Z,4.30
2018-09-02T01:51:28.113Z,5.50
2018-09-02T01:52:28.128Z,5.40
2018-09-02T01:53:28.153Z,7.10
2018-09-02T01:54:28.184Z,5.80
2018-09-02T01:55:28.200Z,5.70
2018-09-02T01:56:28.216Z,4.20
2018-09-02T01:57:28.230Z,4.10
2018-09-02T01:58:28.261Z,4.50
2018-09-02T01:59:28.273Z,6.00
2018-09-02T02:00:28.301Z,5.90
2018-09-02T02:01:28.315Z,4.80
2018-09-02T02:02:28.336Z,5.50
2018-09-02T02:03:28.352Z,4.30
2018-09-02T02:04:28.393Z,4.70
2018-09-02T02:05:28.405Z,5.30
2018-09-02T02:06:28.417Z,4.70
2018-09-02T02:07:28.441Z,5.60
2018-09-02T02:08:28.452Z,4.50
2018-09-02T02:09:28.480Z,4.60
2018-09-02T02:10:28.496Z,6.10
2018-09-02T02:11:28.523Z,5.40
2018-09-02T02:12:28.535Z,5.80
2018-09-02T02:13:28.559Z,4.90
2018-09-02T02:14:28.589Z,4.00
2018-09-02T02:15:28.603Z,4.40
2018-09-02T02:16:28.628Z,5.60
2018-09-02T02:17:28.640Z,4.90
2018-09-02T02:18:28.676Z,7.10
2018-09-02T02:19:28.677Z,4.20
2018-09-02T02:20:28.708Z,4.20
2018-09-02T02:21:28.780Z,5.80
2018-09-02T02:22:28.742Z,6.30
2018-09-02T02:23:28.758Z,4.50
2018-09-02T02:24:28.787Z,6.30
2018-09-02T02:25:28.809Z,6.40
2018-09-02T02:26:28.827Z,6.10
2018-09-02T02:27:28.851Z,4.50
2018-09-02T02:28:28.859Z,4.50
2018-09-02T02:29:28.886Z,6.00
2018-09-02T02:30:28.904Z,5.80
2018-09-02T02:31:28.929Z,6.70
2018-09-02T02:32:28.945Z,5.30
2018-09-02T02:33:28.971Z,7.00
2018-09-02T02:34:28.980Z,5.00
2018-09-02T02:35:29.005Z,5.30
2018-09-02T02:36:29.022Z,5.40
2018-09-02T02:37:29.051Z,5.30
2018-09-02T02:38:29.069Z,4.60
2018-09-02T02:39:29.083Z,4.60
2018-09-02T02:40:29.110Z,4.50
2018-09-02T02:41:29.126Z,5.40
2018-09-02T02:42:29.155Z,6.30
2018-09-02T02:43:29.168Z,9.10
2018-09-02T02:44:29.187Z,4.70
2018-09-02T02:45:29.202Z,7.40
2018-09-02T02:46:29.232Z,4.90
2018-09-02T02:47:29.258Z,4.60
2018-09-02T02:48:29.272Z,5.80
2018-09-02T02:49:29.299Z,6.20
2018-09-02T02:50:29.308Z,5.10
2018-09-02T02:51:29.334Z,5.80
2018-09-02T02:52:29.352Z,6.60
2018-09-02T02:53:29.376Z,6.40
2018-09-02T02:54:29.387Z,6.30
2018-09-02T02:55:29.413Z,4.70
2018-09-02T02:56:29.424Z,5.20
2018-09-02T02:57:29.449Z,4.60
2018-09-02T02:58:29.470Z,5.80
2018-09-02T02:59:29.494Z,7.10
2018-09-02T03:00:29.518Z,4.30
2018-09-02T03:01:29.544Z,3.80
2018-09-02T03:02:29.562Z,6.30
2018-09-02T03:03:29.578Z,4.20
2018-09-02T03:04:29.598Z,5.00
2018-09-02T03:05:29.611Z,7.40
2018-09-02T03:06:29.636Z,5.30
2018-09-02T03:07:29.647Z,6.80
2018-09-02T03:08:29.678Z,4.40
2018-09-02T03:09:29.704Z,6.40
2018-09-02T03:10:29.712Z,9.90
2018-09-02T03:11:29.739Z,5.60
2018-09-02T03:12:29.755Z,5.20
2018-09-02T03:13:29.781Z,5.60
2018-09-02T03:14:29.797Z,6.00
2018-09-02T03:15:29.823Z,6.10
2018-09-02T03:16:29.843Z,5.00
2018-09-02T03:17:29.857Z,5.80
2018-09-02T03:18:29.887Z,5.00
2018-09-02T03:19:29.900Z,6.60
2018-09-02T03:20:29.929Z,5.30
2018-09-02T03:21:29.942Z,5.90
2018-09-02T03:22:29.964Z,6.80
2018-09-02T03:23:29.977Z,4.90
2018-09-02T03:24:30.007Z,4.60
2018-09-02T03:25:30.033Z,5.50
2018-09-02T03:26:30.052Z,6.10
2018-09-02T03:27:30.069Z,5.40
2018-09-02T03:28:30.093Z,5.70
2018-09-02T03:29:30.107Z,6.20
2018-09-02T03:30:30.124Z,8.10
2018-09-02T03:31:30.157Z,6.30
2018-09-02T03:32:30.160Z,6.80
2018-09-02T03:33:30.186Z,5.10
2018-09-02T03:34:30.218Z,7.20
2018-09-02T03:35:30.231Z,6.00
2018-09-02T03:36:30.255Z,6.10
2018-09-02T03:37:30.268Z,5.30
2018-09-02T03:38:30.289Z,7.70
2018-09-02T03:39:30.303Z,7.20
2018-09-02T03:40:30.331Z,6.20
2018-09-02T03:41:30.355Z,6.40
2018-09-02T03:42:30.373Z,6.20
2018-09-02T03:43:30.398Z,6.70
2018-09-02T03:44:30.414Z,5.40
2018-09-02T03:45:30.440Z,7.00
2018-09-02T03:46:30.448Z,8.30
2018-09-02T03:47:30.474Z,7.00
2018-09-02T03:48:30.491Z,6.90
2018-09-02T03:49:30.517Z,6.00
2018-09-02T03:50:30.525Z,7.50
2018-09-02T03:51:30.551Z,6.60
2018-09-02T03:52:30.568Z,5.60
2018-09-02T03:53:30.594Z,5.40
2018-09-02T03:54:30.624Z,6.70
2018-09-02T03:55:30.649Z,7.20
2018-09-02T03:56:30.659Z,6.40
2018-09-02T03:57:30.673Z,7.10
2018-09-02T03:58:30.702Z,7.30
2018-09-02T03:59:30.716Z,6.60
2018-09-02T04:00:30.743Z,8.00
2018-09-02T04:01:30.754Z,6.70
2018-09-02T04:02:30.776Z,5.90
2018-09-02T04:03:30.801Z,7.10
2018-09-02T04:04:30.820Z,5.40
2018-09-02T04:05:30.846Z,6.50
2018-09-02T04:06:30.856Z,5.40
2018-09-02T04:07:30.882Z,7.70
2018-09-02T04:08:30.894Z,7.00
2018-09-02T04:09:30.920Z,6.70
2018-09-02T04:10:30.937Z,7.00
2018-09-02T04:11:31.003Z,6.50
2018-09-02T04:12:30.979Z,6.70
2018-09-02T04:13:30.997Z,7.50
2018-09-02T04:14:31.029Z,5.20
2018-09-02T04:15:31.043Z,6.10
2018-09-02T04:16:31.070Z,7.80
2018-09-02T04:17:31.103Z,7.10
2018-09-02T04:18:31.107Z,7.10
2018-09-02T04:19:31.119Z,5.70
2018-09-02T04:20:31.147Z,6.60
2018-09-02T04:21:31.164Z,8.30
2018-09-02T04:22:31.182Z,7.30
2018-09-02T04:23:31.198Z,7.50
2018-09-02T04:24:31.224Z,9.10
2018-09-02T04:25:31.249Z,9.90
2018-09-02T04:26:31.267Z,7.50
2018-09-02T04:27:31.293Z,7.20
2018-09-02T04:28:31.303Z,9.60
2018-09-02T04:29:31.328Z,8.80
2018-09-02T04:30:31.346Z,10.60
2018-09-02T04:31:31.387Z,9.30
2018-09-02T04:32:31.384Z,9.90
2018-09-02T04:33:31.457Z,8.50
2018-09-02T04:34:31.419Z,11.30
2018-09-02T04:35:31.444Z,10.20
2018-09-02T04:36:31.466Z,9.50
2018-09-02T04:37:31.490Z,7.70
2018-09-02T04:38:31.513Z,7.00
2018-09-02T04:39:31.526Z,8.20
2018-09-02T04:40:31.548Z,9.20
2018-09-02T04:41:31.563Z,6.20
2018-09-02T04:42:31.593Z,9.00
2018-09-02T04:43:31.606Z,8.20
2018-09-02T04:44:31.630Z,9.10
2018-09-02T04:45:31.645Z,11.90
2018-09-02T04:46:31.675Z,10.80
2018-09-02T04:47:31.692Z,11.70
2018-09-02T04:48:31.722Z,11.30
2018-09-02T04:49:31.737Z,10.10
2018-09-02T04:50:31.747Z,11.90
2018-09-02T04:51:31.776Z,13.10
2018-09-02T04:52:31.805Z,9.90
2018-09-02T04:53:31.818Z,11.70
2018-09-02T04:54:31.890Z,9.00
2018-09-02T04:55:31.853Z,12.10
2018-09-02T04:56:31.864Z,11.10
2018-09-02T04:57:31.890Z,13.20
2018-09-02T04:58:31.909Z,12.20
2018-09-02T04:59:31.936Z,13.20
2018-09-02T05:00:31.945Z,14.00
2018-09-02T05:01:31.969Z,12.60
2018-09-02T05:02:32.005Z,10.70
2018-09-02T05:03:32.014Z,12.40
2018-09-02T05:04:32.029Z,9.90
2018-09-02T05:05:32.054Z,10.00
2018-09-02T05:06:32.090Z,9.70
2018-09-02T05:07:32.090Z,10.40
2018-09-02T05:08:32.119Z,10.60
2018-09-02T05:09:32.131Z,10.70
2018-09-02T05:10:32.152Z,11.80
2018-09-02T05:11:32.167Z,10.90
2018-09-02T05:12:32.194Z,11.60
2018-09-02T05:13:32.208Z,12.00
2018-09-02T05:14:32.242Z,9.70
2018-09-02T05:15:32.251Z,11.80
2018-09-02T05:16:32.279Z,10.70
2018-09-02T05:17:32.301Z,9.90
2018-09-02T05:18:32.317Z,12.20
2018-09-02T05:19:32.360Z,10.20
2018-09-02T05:20:32.355Z,9.70
2018-09-02T05:21:32.381Z,11.30
2018-09-02T05:22:32.389Z,12.30
2018-09-02T05:23:32.417Z,11.50
2018-09-02T05:24:32.436Z,11.80
2018-09-02T05:25:32.462Z,12.60
2018-09-02T05:26:32.487Z,10.80
2018-09-02T05:27:32.497Z,15.10
2018-09-02T05:28:32.538Z,9.70
2018-09-02T05:29:32.534Z,8.60
2018-09-02T05:30:32.566Z,11.50
2018-09-02T05:31:32.580Z,9.60
2018-09-02T05:32:32.599Z,10.00
2018-09-02T05:33:32.630Z,10.20
2018-09-02T05:34:32.643Z,11.20
2018-09-02T05:35:32.669Z,11.20
2018-09-02T05:36:32.685Z,12.00
2018-09-02T05:37:32.711Z,10.30
2018-09-02T05:38:32.721Z,9.00
2018-09-02T05:39:32.746Z,8.90
2018-09-02T05:40:32.763Z,8.90
2018-09-02T05:41:32.793Z,10.60
2018-09-02T05:42:32.822Z,10.40
2018-09-02T05:43:32.823Z,10.20
2018-09-02T05:44:32.852Z,11.10
2018-09-02T05:45:32.864Z,10.30
2018-09-02T05:46:32.894Z,10.00
2018-09-02T05:47:32.921Z,10.40
2018-09-02T05:48:32.960Z,11.10
2018-09-02T05:49:32.961Z,12.30
2018-09-02T05:50:32.970Z,9.40
2018-09-02T05:51:32.996Z,11.10
2018-09-02T05:52:33.019Z,10.20
2018-09-02T05:53:33.041Z,10.70
2018-09-02T05:54:33.064Z,10.80
2018-09-02T05:55:33.076Z,10.50
2018-09-02T05:56:33.113Z,11.20
2018-09-02T05:57:33.195Z,9.70
2018-09-02T05:58:33.145Z,10.60
2018-09-02T05:59:33.170Z,11.40
2018-09-02T06:00:33.180Z,11.70
2018-09-02T06:01:33.207Z,10.70
2018-09-02T06:02:33.228Z,10.70
2018-09-02T06:03:33.244Z,11.60
2018-09-02T06:04:33.271Z,9.30
2018-09-02T06:05:33.285Z,10.80
2018-09-02T06:06:33.308Z,12.00
2018-09-02T06:07:33.323Z,10.20
2018-09-02T06:08:33.350Z,9.60
2018-09-02T06:09:33.380Z,11.90
2018-09-02T06:10:33.405Z,10.90
2018-09-02T06:11:33.419Z,9.30
2018-09-02T06:12:33.439Z,11.00
2018-09-02T06:13:33.452Z,11.80
2018-09-02T06:14:33.484Z,12.10
2018-09-02T06:15:33.496Z,11.60
2018-09-02T06:16:33.523Z,10.40
2018-09-02T06:17:33.548Z,11.50
2018-09-02T06:18:33.560Z,12.70
2018-09-02T06:19:33.585Z,15.30
2018-09-02T06:20:33.602Z,12.80
2018-09-02T06:21:33.629Z,11.70
2018-09-02T06:22:33.649Z,12.10
2018-09-02T06:23:33.663Z,10.10
2018-09-02T06:24:33.687Z,14.20
2018-09-02T06:25:33.700Z,13.70
2018-09-02T06:26:33.730Z,13.90
2018-09-02T06:27:33.756Z,14.20
2018-09-02T06:28:33.768Z,14.50
2018-09-02T06:29:33.794Z,14.30
2018-09-02T06:30:33.812Z,13.30
2018-09-02T06:31:33.838Z,15.50
2018-09-02T06:32:33.862Z,14.60
2018-09-02T06:33:33.887Z,15.60
2018-09-02T06:34:33.917Z,13.70
2018-09-02T06:35:33.948Z,13.00
2018-09-02T06:36:33.940Z,15.80
2018-09-02T06:37:33.988Z,14.60
2018-09-02T06:38:33.981Z,15.20
2018-09-02T06:39:34.173Z,15.80
2018-09-02T06:40:34.032Z,14.00
2018-09-02T06:41:34.043Z,15.60
2018-09-02T06:42:34.074Z,15.70
2018-09-02T06:43:34.088Z,14.10
2018-09-02T06:44:34.108Z,13.60
2018-09-02T06:45:34.141Z,15.70
2018-09-02T06:46:34.150Z,14.30
2018-09-02T06:47:34.176Z,14.50
2018-09-02T06:48:34.193Z,15.80
2018-09-02T06:49:34.220Z,14.50
2018-09-02T06:50:34.240Z,16.70
2018-09-02T06:51:34.252Z,16.30
2018-09-02T06:52:34.280Z,15.40
2018-09-02T06:53:34.307Z,14.90
2018-09-02T06:54:34.316Z,17.60
2018-09-02T06:55:34.343Z,18.20
2018-09-02T06:56:34.370Z,15.80
2018-09-02T06:57:34.383Z,20.60
2018-09-02T06:58:34.450Z,16.20
2018-09-02T06:59:34.439Z,16.50
2018-09-02T07:00:34.447Z,21.30
2018-09-02T07:01:34.477Z,14.70
2018-09-02T07:02:34.506Z,18.30
2018-09-02T07:03:34.516Z,17.40
2018-09-02T07:04:34.544Z,17.40
2018-09-02T07:05:34.570Z,16.70
2018-09-02T07:06:34.615Z,16.50
2018-09-02T07:07:34.611Z,16.60
2018-09-02T07:08:34.635Z,16.80
2018-09-02T07:09:34.650Z,18.50
2018-09-02T07:10:34.671Z,17.10
2018-09-02T07:11:34.697Z,16.50
2018-09-02T07:12:34.709Z,18.70
2018-09-02T07:13:34.737Z,18.40
2018-09-02T07:14:34.764Z,20.00
2018-09-02T07:15:34.791Z,17.20
2018-09-02T07:16:34.803Z,18.60
2018-09-02T07:17:34.828Z,22.10
2018-09-02T07:18:34.858Z,18.60
2018-09-02T07:19:35.122Z,20.30
2018-09-02T07:20:34.896Z,21.10
2018-09-02T07:21:34.923Z,19.00
2018-09-02T07:22:34.943Z,19.70
2018-09-02T07:23:34.957Z,19.80
2018-09-02T07:24:34.986Z,19.10
2018-09-02T07:25:35.000Z,20.30
2018-09-02T07:26:35.022Z,21.50
2018-09-02T07:27:35.048Z,19.90
2018-09-02T07:28:35.076Z,19.20
2018-09-02T07:29:35.095Z,20.90
2018-09-02T07:30:35.119Z,20.10
2018-09-02T07:31:35.209Z,21.70
2018-09-02T07:32:35.153Z,18.60
2018-09-02T07:33:35.180Z,19.00
2018-09-02T07:34:35.209Z,20.00
2018-09-02T07:35:35.238Z,19.00
2018-09-02T07:36:35.250Z,19.70
2018-09-02T07:37:35.276Z,20.90
2018-09-02T07:38:35.286Z,17.90
2018-09-02T07:39:35.311Z,19.90
2018-09-02T07:40:35.342Z,19.80
2018-09-02T07:41:35.356Z,18.20
2018-09-02T07:42:35.377Z,20.10
2018-09-02T07:43:35.447Z,18.60
2018-09-02T07:44:35.430Z,20.30
2018-09-02T07:45:35.441Z,17.60
2018-09-02T07:46:35.470Z,18.50
2018-09-02T07:47:35.496Z,18.00
2018-09-02T07:48:35.508Z,18.50
2018-09-02T07:49:35.546Z,18.30
2018-09-02T07:50:35.563Z,17.10
2018-09-02T07:51:35.590Z,17.80
2018-09-02T07:52:35.601Z,16.80
2018-09-02T07:53:35.627Z,16.80
2018-09-02T07:54:35.750Z,22.80
2018-09-02T07:55:35.662Z,18.20
2018-09-02T07:56:35.688Z,16.70
2018-09-02T07:57:35.714Z,18.90
2018-09-02T07:58:35.756Z,15.30
2018-09-02T07:59:35.760Z,17.40
2018-09-02T08:00:35.785Z,17.30
2018-09-02T08:01:35.812Z,17.90
2018-09-02T08:02:35.874Z,15.80
2018-09-02T08:03:35.846Z,14.80
2018-09-02T08:04:35.874Z,14.10
2018-09-02T08:05:35.914Z,17.40
2018-09-02T08:06:35.922Z,16.70
2018-09-02T08:07:35.937Z,17.10
2018-09-02T08:08:35.966Z,15.90
2018-09-02T08:09:35.990Z,16.60
2018-09-02T08:10:36.020Z,13.60
2018-09-02T08:11:36.046Z,16.30
2018-09-02T08:12:36.103Z,14.90
2018-09-02T08:13:36.081Z,16.30
2018-09-02T08:14:36.112Z,17.00
2018-09-02T08:15:36.126Z,15.50
2018-09-02T08:16:36.149Z,16.10
2018-09-02T08:17:36.175Z,18.30
2018-09-02T08:18:36.197Z,15.40
2018-09-02T08:19:36.224Z,16.00
2018-09-02T08:20:36.242Z,18.40
2018-09-02T08:21:36.268Z,16.10
2018-09-02T08:22:36.291Z,16.50
2018-09-02T08:23:36.315Z,16.50
2018-09-02T08:24:36.328Z,16.90
2018-09-02T08:25:36.355Z,18.30
2018-09-02T08:26:36.399Z,15.90
2018-09-02T08:27:36.409Z,14.70
2018-09-02T08:28:36.419Z,15.00
2018-09-02T08:29:36.449Z,18.40
2018-09-02T08:30:36.474Z,17.60
2018-09-02T08:31:36.501Z,14.20
2018-09-02T08:32:36.529Z,17.40
2018-09-02T08:33:36.543Z,17.70
2018-09-02T08:34:36.564Z,16.10
2018-09-02T08:35:36.594Z,17.00
2018-09-02T08:36:36.619Z,14.60
2018-09-02T08:37:36.631Z,16.60
2018-09-02T08:38:36.691Z,16.40
2018-09-02T08:39:36.679Z,15.70
2018-09-02T08:40:36.720Z,15.20
2018-09-02T08:41:36.720Z,14.10
2018-09-02T08:42:36.751Z,16.80
2018-09-02T08:43:36.778Z,14.80
2018-09-02T08:44:36.799Z,16.60
2018-09-02T08:45:36.813Z,16.90
2018-09-02T08:46:36.842Z,15.80
2018-09-02T08:47:36.882Z,17.00
2018-09-02T08:48:36.897Z,18.40
2018-09-02T08:49:36.917Z,17.50
2018-09-02T08:50:36.958Z,16.60
2018-09-02T08:51:36.953Z,19.60
2018-09-02T08:52:36.985Z,17.20
2018-09-02T08:53:37.012Z,14.10
2018-09-02T08:54:37.021Z,16.80
2018-09-02T08:55:37.046Z,16.50
2018-09-02T08:56:37.074Z,19.10
2018-09-02T08:57:37.099Z,17.40
2018-09-02T08:58:37.116Z,18.10
2018-09-02T08:59:37.141Z,17.90
2018-09-02T09:00:37.164Z,16.10
2018-09-02T09:01:37.216Z,19.20
2018-09-02T09:02:37.208Z,19.40
2018-09-02T09:03:37.236Z,21.00
2018-09-02T09:04:37.258Z,19.90
2018-09-02T09:05:37.272Z,22.10
2018-09-02T09:06:37.297Z,22.30
2018-09-02T09:07:37.432Z,17.50
2018-09-02T09:08:37.381Z,19.20
2018-09-02T09:09:37.365Z,17.10
2018-09-02T09:10:37.399Z,21.30
2018-09-02T09:11:37.412Z,22.00
2018-09-02T09:12:37.436Z,20.00
2018-09-02T09:13:37.450Z,19.60
2018-09-02T09:14:37.482Z,20.40
2018-09-02T09:15:37.505Z,20.50
2018-09-02T09:16:37.580Z,19.50
2018-09-02T09:17:37.542Z,18.60
2018-09-02T09:18:37.573Z,20.70
2018-09-02T09:19:37.598Z,19.60
2018-09-02T09:20:37.628Z,20.30
2018-09-02T09:21:37.833Z,20.80
2018-09-02T09:22:37.678Z,19.90
2018-09-02T09:23:37.688Z,18.20
2018-09-02T09:24:37.707Z,21.60
2018-09-02T09:25:37.732Z,20.30
2018-09-02T09:26:37.750Z,19.90
2018-09-02T09:27:37.776Z,19.20
2018-09-02T09:28:37.792Z,17.70
2018-09-02T09:29:37.818Z,19.80
2018-09-02T09:30:37.848Z,18.60
2018-09-02T09:31:37.877Z,17.90
2018-09-02T09:32:37.883Z,17.60
2018-09-02T09:33:37.908Z,18.20
2018-09-02T09:34:37.938Z,17.20
2018-09-02T09:35:37.964Z,17.90
2018-09-02T09:36:37.977Z,17.50
2018-09-02T09:37:38.003Z,16.20
2018-09-02T09:38:38.024Z,16.70
2018-09-02T09:39:38.051Z,14.30
2018-09-02T09:40:38.072Z,16.70
2018-09-02T09:41:38.095Z,15.70
2018-09-02T09:42:38.117Z,15.30
2018-09-02T09:43:38.143Z,12.70
2018-09-02T09:44:38.159Z,15.60
2018-09-02T09:45:38.183Z,13.50
2018-09-02T09:46:38.211Z,18.20
2018-09-02T09:47:38.238Z,14.80
2018-09-02T09:48:38.246Z,14.30
2018-09-02T09:49:38.272Z,14.80
2018-09-02T09:50:38.302Z,13.30
2018-09-02T09:51:38.328Z,13.20
2018-09-02T09:52:38.343Z,13.60
2018-09-02T09:53:38.370Z,12.00
2018-09-02T09:54:38.392Z,17.90
2018-09-02T09:55:38.487Z,13.20
2018-09-02T09:56:38.433Z,13.90
2018-09-02T09:57:38.458Z,13.20
2018-09-02T09:58:38.480Z,10.50
2018-09-02T09:59:38.520Z,11.50
2018-09-02T10:00:38.525Z,11.70
2018-09-02T10:01:38.549Z,10.00
2018-09-02T10:02:38.579Z,12.30
2018-09-02T10:03:38.622Z,11.50
2018-09-02T10:04:38.618Z,11.40
2018-09-02T10:05:38.656Z,10.00
2018-09-02T10:06:38.667Z,10.20
2018-09-02T10:07:38.693Z,12.50
2018-09-02T10:08:38.703Z,11.80
2018-09-02T10:09:38.729Z,10.00
2018-09-02T10:10:38.760Z,10.90
2018-09-02T10:11:38.810Z,10.40
2018-09-02T10:12:38.809Z,11.80
2018-09-02T10:13:38.821Z,11.60
2018-09-02T10:14:38.853Z,13.00
2018-09-02T10:15:38.865Z,11.60
2018-09-02T10:16:38.891Z,14.60
2018-09-02T10:17:38.916Z,12.80
2018-09-02T10:18:38.941Z,15.50
2018-09-02T10:19:38.953Z,15.30
2018-09-02T10:20:38.981Z,13.10
2018-09-02T10:21:39.007Z,13.90
2018-09-02T10:22:39.017Z,13.90
2018-09-02T10:23:39.042Z,13.70
2018-09-02T10:24:39.073Z,12.90
2018-09-02T10:25:39.084Z,14.00
2018-09-02T10:26:39.114Z,12.70
2018-09-02T10:27:39.139Z,14.80
2018-09-02T10:28:39.148Z,13.30
2018-09-02T10:29:39.174Z,14.80
2018-09-02T10:30:39.204Z,13.10
2018-09-02T10:31:39.216Z,12.80
2018-09-02T10:32:39.294Z,16.40
2018-09-02T10:33:39.280Z,12.70
2018-09-02T10:34:39.292Z,12.70
2018-09-02T10:35:39.306Z,12.50
2018-09-02T10:36:39.337Z,12.20
2018-09-02T10:37:39.363Z,12.40
2018-09-02T10:38:39.370Z,13.10
2018-09-02T10:39:39.397Z,12.00
2018-09-02T10:40:39.420Z,11.80
2018-09-02T10:41:39.434Z,10.40
2018-09-02T10:42:39.469Z,10.40
2018-09-02T10:43:39.491Z,11.30
2018-09-02T10:44:39.501Z,10.30
2018-09-02T10:45:39.528Z,10.40
2018-09-02T10:46:39.558Z,9.50
2018-09-02T10:47:39.572Z,12.10
2018-09-02T10:48:39.596Z,10.10
2018-09-02T10:49:39.659Z,10.90
2018-09-02T10:50:39.631Z,10.70
2018-09-02T10:51:39.656Z,11.00
2018-09-02T10:52:39.686Z,9.50
2018-09-02T10:53:39.700Z,10.10
2018-09-02T10:54:39.722Z,10.70
2018-09-02T10:55:39.751Z,9.60
2018-09-02T10:56:39.764Z,10.40
2018-09-02T10:57:39.789Z,10.70
2018-09-02T10:58:39.819Z,10.70
2018-09-02T10:59:39.857Z,11.40
2018-09-02T11:00:39.854Z,9.20
2018-09-02T11:01:39.880Z,9.90
2018-09-02T11:02:39.909Z,9.50
2018-09-02T11:03:39.922Z,9.00
2018-09-02T11:04:39.950Z,9.40
2018-09-02T11:05:39.975Z,11.10
2018-09-02T11:06:39.997Z,14.70
2018-09-02T11:07:40.038Z,12.30
2018-09-02T11:08:40.165Z,8.30
2018-09-02T11:09:40.067Z,9.70
2018-09-02T11:10:40.075Z,9.20
2018-09-02T11:11:40.101Z,8.40
2018-09-02T11:12:40.129Z,8.90
2018-09-02T11:13:40.267Z,7.70
2018-09-02T11:14:40.173Z,11.90
2018-09-02T11:15:40.198Z,7.10
2018-09-02T11:16:40.218Z,8.90
2018-09-02T11:17:40.232Z,9.90
2018-09-02T11:18:40.261Z,9.30
2018-09-02T11:19:40.288Z,7.90
2018-09-02T11:20:40.315Z,6.90
2018-09-02T11:21:40.329Z,8.30
2018-09-02T11:22:40.351Z,9.30
2018-09-02T11:23:40.381Z,7.20
2018-09-02T11:24:40.408Z,8.50
2018-09-02T11:25:40.420Z,6.00
2018-09-02T11:26:40.442Z,7.40
2018-09-02T11:27:40.474Z,9.00
2018-09-02T11:28:40.494Z,7.80
2018-09-02T11:29:40.510Z,8.20
2018-09-02T11:30:40.537Z,7.30
2018-09-02T11:31:40.565Z,8.10
2018-09-02T11:32:40.590Z,6.90
2018-09-02T11:33:40.612Z,7.90
2018-09-02T11:34:40.629Z,5.70
2018-09-02T11:35:40.654Z,7.40
2018-09-02T11:36:40.679Z,6.80
2018-09-02T11:37:40.705Z,6.50
2018-09-02T11:38:40.740Z,7.30
2018-09-02T11:39:40.740Z,6.10
2018-09-02T11:40:40.771Z,6.50
2018-09-02T11:41:40.797Z,7.20
2018-09-02T11:42:40.819Z,5.20
2018-09-02T11:43:40.832Z,5.00
2018-09-02T11:44:40.860Z,5.40
2018-09-02T11:45:40.888Z,4.60
2018-09-02T11:46:40.949Z,4.60
2018-09-02T11:47:40.942Z,6.20
2018-09-02T11:48:40.960Z,5.40
2018-09-02T11:49:40.975Z,4.60
2018-09-02T11:50:41.005Z,5.90
2018-09-02T11:51:41.032Z,3.50
2018-09-02T11:52:41.062Z,6.90
2018-09-02T11:53:41.086Z,4.70
2018-09-02T11:54:41.105Z,3.90
2018-09-02T11:55:41.121Z,7.20
2018-09-02T11:56:41.158Z,4.80
2018-09-02T11:57:41.188Z,4.20
2018-09-02T11:58:41.197Z,4.10
2018-09-02T11:59:41.224Z,4.30
2018-09-02T12:00:41.260Z,4.80
2018-09-02T12:01:41.275Z,3.30
2018-09-02T12:02:41.303Z,3.70
2018-09-02T12:03:41.317Z,3.30
2018-09-02T12:04:41.372Z,5.10
2018-09-02T12:05:41.367Z,4.40
2018-09-02T12:06:41.398Z,4.80
2018-09-02T12:07:41.424Z,3.30
2018-09-02T12:08:41.448Z,3.40
2018-09-02T12:09:41.474Z,4.80
2018-09-02T12:10:41.495Z,3.30
2018-09-02T12:11:41.591Z,4.40
2018-09-02T12:12:41.549Z,4.50
2018-09-02T12:13:41.574Z,4.20
2018-09-02T12:14:41.605Z,3.70
2018-09-02T12:15:41.618Z,4.60
2018-09-02T12:16:41.646Z,4.00
2018-09-02T12:17:41.670Z,4.10
2018-09-02T12:18:41.692Z,3.80
2018-09-02T12:19:41.718Z,4.40
2018-09-02T12:20:41.746Z,3.80
2018-09-02T12:21:41.773Z,5.90
2018-09-02T12:22:41.794Z,4.40
2018-09-02T12:23:41.819Z,5.10
2018-09-02T12:24:41.847Z,3.80
2018-09-02T12:25:41.873Z,5.30
2018-09-02T12:26:41.903Z,5.90
2018-09-02T12:27:41.918Z,5.20
2018-09-02T12:28:41.939Z,4.10
2018-09-02T12:29:41.967Z,4.40
2018-09-02T12:30:41.996Z,7.50
2018-09-02T12:31:42.065Z,4.10
2018-09-02T12:32:42.047Z,5.40
2018-09-02T12:33:42.071Z,4.00
2018-09-02T12:34:42.092Z,4.70
2018-09-02T12:35:42.106Z,6.80
2018-09-02T12:36:42.140Z,5.80
2018-09-02T12:37:42.169Z,6.00
2018-09-02T12:38:42.186Z,5.80
2018-09-02T12:39:42.211Z,4.80
2018-09-02T12:40:42.235Z,9.70
2018-09-02T12:41:42.261Z,4.70
2018-09-02T12:42:42.292Z,5.80
2018-09-02T12:43:42.305Z,3.20
2018-09-02T12:44:42.328Z,5.80
2018-09-02T12:45:42.353Z,4.90
2018-09-02T12:46:42.384Z,4.60
2018-09-02T12:47:42.496Z,5.10
2018-09-02T12:48:42.440Z,5.30
2018-09-02T12:49:42.465Z,5.50
2018-09-02T12:50:42.486Z,7.50
2018-09-02T12:51:42.512Z,4.80
2018-09-02T12:52:42.539Z,4.70
2018-09-02T12:53:42.565Z,5.60
2018-09-02T12:54:42.587Z,5.00
2018-09-02T12:55:42.613Z,5.70
2018-09-02T12:56:42.642Z,5.10
2018-09-02T12:57:42.670Z,6.10
2018-09-02T12:58:42.698Z,5.90
2018-09-02T12:59:42.724Z,6.10
2018-09-02T13:00:42.745Z,4.40
2018-09-02T13:01:42.771Z,5.00
2018-09-02T13:02:42.804Z,4.20
2018-09-02T13:03:42.827Z,5.70
2018-09-02T13:04:42.851Z,5.00
2018-09-02T13:05:42.877Z,6.80
2018-09-02T13:06:42.902Z,5.80